sensor_id;sensor_type;location;lat;lon;timestamp;pressure;altitude;pressure_sealevel;temperature;humidity
58373;BME280;44177;43.356;27.672;2023-02-28T00:00:38;98980.81;;;13.81;63.79
58373;BME280;44177;43.356;27.672;2023-02-28T00:03:04;98976.91;;;13.82;63.91
58373;BME280;44177;43.356;27.672;2023-02-28T00:05:30;98974.97;;;13.82;63.51
58373;BME280;44177;43.356;27.672;2023-02-28T00:07:56;98970.63;;;13.81;63.82
58373;BME280;44177;43.356;27.672;2023-02-28T00:10:25;98962.03;;;13.83;63.82
58373;BME280;44177;43.356;27.672;2023-02-28T00:12:52;98969.72;;;13.77;63.49
58373;BME280;44177;43.356;27.672;2023-02-28T00:15:19;98989.81;;;13.81;63.81
58373;BME280;44177;43.356;27.672;2023-02-28T00:17:45;98991.78;;;13.81;63.45
58373;BME280;44177;43.356;27.672;2023-02-28T00:20:12;98997.13;;;13.77;64.14
58373;BME280;44177;43.356;27.672;2023-02-28T00:22:39;99007.06;;;13.82;63.52
58373;BME280;44177;43.356;27.672;2023-02-28T00:25:06;99015.19;;;13.78;63.77
58373;BME280;44177;43.356;27.672;2023-02-28T00:27:36;99014.50;;;13.81;63.39
58373;BME280;44177;43.356;27.672;2023-02-28T00:30:02;98999.00;;;13.73;63.65
58373;BME280;44177;43.356;27.672;2023-02-28T00:32:29;99009.38;;;13.80;64.10
58373;BME280;44177;43.356;27.672;2023-02-28T00:34:55;99022.28;;;13.79;63.66
58373;BME280;44177;43.356;27.672;2023-02-28T00:37:20;99012.44;;;13.78;63.71
58373;BME280;44177;43.356;27.672;2023-02-28T00:39:46;99012.44;;;13.78;63.91
58373;BME280;44177;43.356;27.672;2023-02-28T00:42:11;99026.63;;;13.80;63.95
58373;BME280;44177;43.356;27.672;2023-02-28T00:44:37;99014.06;;;13.79;63.75
58373;BME280;44177;43.356;27.672;2023-02-28T00:47:02;99002.63;;;13.77;63.94
58373;BME280;44177;43.356;27.672;2023-02-28T00:49:28;98997.59;;;13.79;63.46
58373;BME280;44177;43.356;27.672;2023-02-28T00:51:54;99001.94;;;13.80;63.28
58373;BME280;44177;43.356;27.672;2023-02-28T00:54:21;99005.38;;;13.77;63.83
58373;BME280;44177;43.356;27.672;2023-02-28T00:56:48;99023.41;;;13.78;63.48
58373;BME280;44177;43.356;27.672;2023-02-28T00:59:14;99023.78;;;13.77;63.94
58373;BME280;44177;43.356;27.672;2023-02-28T01:01:40;99021.81;;;13.77;63.22
58373;BME280;44177;43.356;27.672;2023-02-28T01:04:06;99024.56;;;13.77;63.14
58373;BME280;44177;43.356;27.672;2023-02-28T01:06:31;99019.06;;;13.77;63.72
58373;BME280;44177;43.356;27.672;2023-02-28T01:08:57;99006.53;;;13.76;63.40
58373;BME280;44177;43.356;27.672;2023-02-28T01:11:23;98998.22;;;13.72;63.53
58373;BME280;44177;43.356;27.672;2023-02-28T01:13:49;98991.91;;;13.72;63.45
58373;BME280;44177;43.356;27.672;2023-02-28T01:16:15;98978.00;;;13.65;62.99
58373;BME280;44177;43.356;27.672;2023-02-28T01:18:40;99004.13;;;13.74;63.61
58373;BME280;44177;43.356;27.672;2023-02-28T01:21:12;99016.69;;;13.76;63.36
58373;BME280;44177;43.356;27.672;2023-02-28T01:23:39;99028.00;;;13.74;63.76
58373;BME280;44177;43.356;27.672;2023-02-28T01:26:06;99039.34;;;13.72;63.74
58373;BME280;44177;43.356;27.672;2023-02-28T01:28:32;99035.31;;;13.70;63.50
58373;BME280;44177;43.356;27.672;2023-02-28T01:30:57;99031.91;;;13.73;63.75
58373;BME280;44177;43.356;27.672;2023-02-28T01:33:23;99027.56;;;13.72;64.06
58373;BME280;44177;43.356;27.672;2023-02-28T01:35:48;99025.97;;;13.71;63.64
58373;BME280;44177;43.356;27.672;2023-02-28T01:38:14;99015.81;;;13.71;63.66
58373;BME280;44177;43.356;27.672;2023-02-28T01:40:39;99016.59;;;13.72;63.52
58373;BME280;44177;43.356;27.672;2023-02-28T01:43:19;99018.97;;;13.73;63.58
58373;BME280;44177;43.356;27.672;2023-02-28T01:45:45;99019.31;;;13.72;63.81
58373;BME280;44177;43.356;27.672;2023-02-28T01:48:11;99025.16;;;13.70;63.63
58373;BME280;44177;43.356;27.672;2023-02-28T01:50:41;99017.53;;;13.64;63.71
58373;BME280;44177;43.356;27.672;2023-02-28T01:53:14;99012.59;;;13.69;63.69
58373;BME280;44177;43.356;27.672;2023-02-28T01:55:43;99005.63;;;13.72;63.82
58373;BME280;44177;43.356;27.672;2023-02-28T01:58:10;99012.25;;;13.71;63.70
58373;BME280;44177;43.356;27.672;2023-02-28T02:00:36;99011.81;;;13.69;63.76
58373;BME280;44177;43.356;27.672;2023-02-28T02:03:08;99017.41;;;13.72;63.92
58373;BME280;44177;43.356;27.672;2023-02-28T02:05:36;99012.69;;;13.73;63.80
58373;BME280;44177;43.356;27.672;2023-02-28T02:08:09;99020.47;;;13.71;64.08
58373;BME280;44177;43.356;27.672;2023-02-28T02:10:40;99027.09;;;13.70;63.70
58373;BME280;44177;43.356;27.672;2023-02-28T02:15:36;99018.53;;;13.71;63.63
58373;BME280;44177;43.356;27.672;2023-02-28T02:18:23;99012.16;;;13.67;63.75
58373;BME280;44177;43.356;27.672;2023-02-28T02:35:14;99026.66;;;13.68;63.75
58373;BME280;44177;43.356;27.672;2023-02-28T02:37:38;99026.56;;;13.64;63.85
58373;BME280;44177;43.356;27.672;2023-02-28T02:42:41;99061.94;;;13.69;63.76
58373;BME280;44177;43.356;27.672;2023-02-28T02:45:15;99066.66;;;13.69;63.68
58373;BME280;44177;43.356;27.672;2023-02-28T02:47:43;99066.19;;;13.67;63.62
58373;BME280;44177;43.356;27.672;2023-02-28T02:50:14;99068.94;;;13.67;63.66
58373;BME280;44177;43.356;27.672;2023-02-28T02:52:47;99065.06;;;13.68;63.79
58373;BME280;44177;43.356;27.672;2023-02-28T02:55:14;99048.59;;;13.68;63.87
58373;BME280;44177;43.356;27.672;2023-02-28T02:57:48;99040.69;;;13.66;64.20
58373;BME280;44177;43.356;27.672;2023-02-28T03:00:23;99041.53;;;13.67;63.66
58373;BME280;44177;43.356;27.672;2023-02-28T03:02:50;99040.38;;;13.68;63.75
58373;BME280;44177;43.356;27.672;2023-02-28T03:05:21;99028.94;;;13.66;63.79
58373;BME280;44177;43.356;27.672;2023-02-28T03:07:49;99032.84;;;13.65;64.08
58373;BME280;44177;43.356;27.672;2023-02-28T03:18:35;99054.75;;;13.65;63.60
58373;BME280;44177;43.356;27.672;2023-02-28T03:21:19;99047.34;;;13.65;63.12
58373;BME280;44177;43.356;27.672;2023-02-28T03:26:26;99027.94;;;13.58;63.36
58373;BME280;44177;43.356;27.672;2023-02-28T03:33:58;99063.34;;;13.63;62.90
58373;BME280;44177;43.356;27.672;2023-02-28T03:36:37;99067.22;;;13.62;63.33
58373;BME280;44177;43.356;27.672;2023-02-28T03:39:14;99064.13;;;13.64;63.34
58373;BME280;44177;43.356;27.672;2023-02-28T03:42:01;99086.88;;;13.64;63.07
58373;BME280;44177;43.356;27.672;2023-02-28T03:44:29;99086.88;;;13.64;63.65
58373;BME280;44177;43.356;27.672;2023-02-28T03:47:00;99081.41;;;13.64;63.42
58373;BME280;44177;43.356;27.672;2023-02-28T03:49:39;99063.13;;;13.56;63.47
58373;BME280;44177;43.356;27.672;2023-02-28T03:52:08;99069.63;;;13.64;63.61
58373;BME280;44177;43.356;27.672;2023-02-28T03:54:44;99067.13;;;13.58;63.43
58373;BME280;44177;43.356;27.672;2023-02-28T03:57:39;99072.25;;;13.60;63.25
58373;BME280;44177;43.356;27.672;2023-02-28T04:00:18;99058.53;;;13.60;63.19
58373;BME280;44177;43.356;27.672;2023-02-28T04:02:45;99049.06;;;13.57;62.77
58373;BME280;44177;43.356;27.672;2023-02-28T04:05:11;99062.41;;;13.59;62.82
58373;BME280;44177;43.356;27.672;2023-02-28T04:07:37;99076.25;;;13.63;62.49
58373;BME280;44177;43.356;27.672;2023-02-28T04:10:03;99082.84;;;13.62;62.86
58373;BME280;44177;43.356;27.672;2023-02-28T04:12:29;99084.34;;;13.59;62.66
58373;BME280;44177;43.356;27.672;2023-02-28T04:14:54;99087.91;;;13.60;62.56
58373;BME280;44177;43.356;27.672;2023-02-28T04:17:20;99088.34;;;13.62;62.60
58373;BME280;44177;43.356;27.672;2023-02-28T04:19:45;99063.25;;;13.47;62.42
58373;BME280;44177;43.356;27.672;2023-02-28T04:22:11;99081.28;;;13.61;62.71
58373;BME280;44177;43.356;27.672;2023-02-28T04:24:36;99068.72;;;13.60;62.55
58373;BME280;44177;43.356;27.672;2023-02-28T04:27:02;99086.78;;;13.61;62.70
58373;BME280;44177;43.356;27.672;2023-02-28T04:29:30;99077.16;;;13.54;62.50
58373;BME280;44177;43.356;27.672;2023-02-28T04:31:57;99085.16;;;13.60;62.70
58373;BME280;44177;43.356;27.672;2023-02-28T04:34:24;99089.06;;;13.58;62.56
58373;BME280;44177;43.356;27.672;2023-02-28T04:36:50;99074.09;;;13.56;62.60
58373;BME280;44177;43.356;27.672;2023-02-28T04:39:16;99060.72;;;13.54;62.66
58373;BME280;44177;43.356;27.672;2023-02-28T04:41:44;99062.78;;;13.57;62.73
58373;BME280;44177;43.356;27.672;2023-02-28T04:44:10;99071.00;;;13.57;62.70
58373;BME280;44177;43.356;27.672;2023-02-28T04:46:35;99068.72;;;13.60;62.61
58373;BME280;44177;43.356;27.672;2023-02-28T04:49:01;99069.03;;;13.58;62.43
58373;BME280;44177;43.356;27.672;2023-02-28T04:51:26;99060.03;;;13.57;62.67
58373;BME280;44177;43.356;27.672;2023-02-28T04:53:52;99063.91;;;13.56;62.35
58373;BME280;44177;43.356;27.672;2023-02-28T04:56:18;99072.59;;;13.58;62.74
58373;BME280;44177;43.356;27.672;2023-02-28T04:58:44;99079.59;;;13.56;62.60
58373;BME280;44177;43.356;27.672;2023-02-28T05:01:18;99080.81;;;13.58;62.43
58373;BME280;44177;43.356;27.672;2023-02-28T05:03:43;99079.91;;;13.54;62.31
58373;BME280;44177;43.356;27.672;2023-02-28T05:06:10;99096.81;;;13.56;62.29
58373;BME280;44177;43.356;27.672;2023-02-28T05:08:36;99098.31;;;13.54;62.72
58373;BME280;44177;43.356;27.672;2023-02-28T05:11:05;99095.22;;;13.55;62.81
58373;BME280;44177;43.356;27.672;2023-02-28T05:13:31;99102.28;;;13.56;62.50
58373;BME280;44177;43.356;27.672;2023-02-28T05:15:56;99106.19;;;13.55;62.48
58373;BME280;44177;43.356;27.672;2023-02-28T05:18:22;99096.13;;;13.47;62.31
58373;BME280;44177;43.356;27.672;2023-02-28T05:20:47;99114.66;;;13.50;62.42
58373;BME280;44177;43.356;27.672;2023-02-28T05:23:14;99117.84;;;13.52;62.45
58373;BME280;44177;43.356;27.672;2023-02-28T05:25:40;99118.97;;;13.51;62.69
58373;BME280;44177;43.356;27.672;2023-02-28T05:28:06;99112.56;;;13.47;62.64
58373;BME280;44177;43.356;27.672;2023-02-28T05:30:33;99117.84;;;13.52;62.03
58373;BME280;44177;43.356;27.672;2023-02-28T05:32:59;99126.50;;;13.54;62.16
58373;BME280;44177;43.356;27.672;2023-02-28T05:35:25;99128.81;;;13.52;61.87
58373;BME280;44177;43.356;27.672;2023-02-28T05:37:51;99133.47;;;13.52;61.92
58373;BME280;44177;43.356;27.672;2023-02-28T05:40:17;99132.69;;;13.51;62.25
58373;BME280;44177;43.356;27.672;2023-02-28T05:42:43;99136.47;;;13.47;62.15
58373;BME280;44177;43.356;27.672;2023-02-28T05:45:09;99142.06;;;13.50;62.47
58373;BME280;44177;43.356;27.672;2023-02-28T05:47:35;99140.44;;;13.49;62.57
58373;BME280;44177;43.356;27.672;2023-02-28T05:50:00;99130.03;;;13.42;62.16
58373;BME280;44177;43.356;27.672;2023-02-28T05:52:27;99158.97;;;13.52;61.96
58373;BME280;44177;43.356;27.672;2023-02-28T05:54:53;99161.69;;;13.52;62.01
58373;BME280;44177;43.356;27.672;2023-02-28T05:57:18;99157.38;;;13.51;61.84
58373;BME280;44177;43.356;27.672;2023-02-28T05:59:44;99161.25;;;13.50;62.08
58373;BME280;44177;43.356;27.672;2023-02-28T06:02:14;99171.06;;;13.51;61.63
58373;BME280;44177;43.356;27.672;2023-02-28T06:04:40;99166.25;;;13.48;62.11
58373;BME280;44177;43.356;27.672;2023-02-28T06:07:07;99167.84;;;13.49;62.16
58373;BME280;44177;43.356;27.672;2023-02-28T06:09:32;99166.25;;;13.48;61.67
58373;BME280;44177;43.356;27.672;2023-02-28T06:11:59;99172.22;;;13.50;61.82
58373;BME280;44177;43.356;27.672;2023-02-28T06:14:25;99174.47;;;13.48;61.79
58373;BME280;44177;43.356;27.672;2023-02-28T06:16:50;99171.63;;;13.45;62.02
58373;BME280;44177;43.356;27.672;2023-02-28T06:19:16;99181.09;;;13.47;62.25
58373;BME280;44177;43.356;27.672;2023-02-28T06:21:41;99168.41;;;13.42;62.31
58373;BME280;44177;43.356;27.672;2023-02-28T06:24:07;99160.66;;;13.45;61.92
58373;BME280;44177;43.356;27.672;2023-02-28T06:26:33;99163.06;;;13.46;62.02
58373;BME280;44177;43.356;27.672;2023-02-28T06:28:59;99164.34;;;13.49;62.18
58373;BME280;44177;43.356;27.672;2023-02-28T06:31:26;99167.06;;;13.49;62.07
58373;BME280;44177;43.356;27.672;2023-02-28T06:33:51;99164.66;;;13.47;62.01
58373;BME280;44177;43.356;27.672;2023-02-28T06:36:17;99162.25;;;13.46;61.76
58373;BME280;44177;43.356;27.672;2023-02-28T06:38:44;99163.88;;;13.47;61.65
58373;BME280;44177;43.356;27.672;2023-02-28T06:41:09;99165.47;;;13.48;61.74
58373;BME280;44177;43.356;27.672;2023-02-28T06:43:39;99165.47;;;13.48;61.84
58373;BME280;44177;43.356;27.672;2023-02-28T06:46:07;99165.47;;;13.48;61.91
58373;BME280;44177;43.356;27.672;2023-02-28T06:48:34;99168.09;;;13.44;61.59
58373;BME280;44177;43.356;27.672;2023-02-28T06:51:08;99167.41;;;13.47;61.92
58373;BME280;44177;43.356;27.672;2023-02-28T06:53:34;99172.44;;;13.45;61.87
58373;BME280;44177;43.356;27.672;2023-02-28T06:56:04;99169.34;;;13.47;61.72
58373;BME280;44177;43.356;27.672;2023-02-28T06:58:31;99167.41;;;13.47;61.81
58373;BME280;44177;43.356;27.672;2023-02-28T07:00:57;99156.19;;;13.40;61.40
58373;BME280;44177;43.356;27.672;2023-02-28T07:03:22;99165.34;;;13.44;61.64
58373;BME280;44177;43.356;27.672;2023-02-28T07:05:48;99172.44;;;13.45;61.64
58373;BME280;44177;43.356;27.672;2023-02-28T07:08:13;99172.44;;;13.45;61.76
58373;BME280;44177;43.356;27.672;2023-02-28T07:10:39;99172.44;;;13.45;61.88
58373;BME280;44177;43.356;27.672;2023-02-28T07:13:06;99170.84;;;13.44;61.68
58373;BME280;44177;43.356;27.672;2023-02-28T07:15:32;99167.16;;;13.40;61.80
58373;BME280;44177;43.356;27.672;2023-02-28T07:17:57;99167.16;;;13.40;61.21
58373;BME280;44177;43.356;27.672;2023-02-28T07:20:23;99156.06;;;13.36;61.32
58373;BME280;44177;43.356;27.672;2023-02-28T07:22:50;99164.88;;;13.42;61.17
58373;BME280;44177;43.356;27.672;2023-02-28T07:25:27;99156.66;;;13.42;61.48
58373;BME280;44177;43.356;27.672;2023-02-28T07:27:54;99154.72;;;13.42;61.23
58373;BME280;44177;43.356;27.672;2023-02-28T07:30:20;99157.13;;;13.44;61.38
58373;BME280;44177;43.356;27.672;2023-02-28T07:32:46;99161.78;;;13.43;60.85
58373;BME280;44177;43.356;27.672;2023-02-28T07:35:11;99161.69;;;13.40;61.03
58373;BME280;44177;43.356;27.672;2023-02-28T07:37:37;99155.06;;;13.41;61.28
58373;BME280;44177;43.356;27.672;2023-02-28T07:40:07;99160.19;;;13.42;61.30
58373;BME280;44177;43.356;27.672;2023-02-28T07:42:36;99157.03;;;13.40;61.17
58373;BME280;44177;43.356;27.672;2023-02-28T07:45:02;99163.28;;;13.41;61.75
58373;BME280;44177;43.356;27.672;2023-02-28T07:47:31;99159.94;;;13.35;61.08
58373;BME280;44177;43.356;27.672;2023-02-28T07:49:57;99159.28;;;13.38;61.24
58373;BME280;44177;43.356;27.672;2023-02-28T07:52:23;99176.63;;;13.42;61.01
58373;BME280;44177;43.356;27.672;2023-02-28T07:54:49;99169.91;;;13.40;61.53
58373;BME280;44177;43.356;27.672;2023-02-28T07:57:15;99170.72;;;13.40;61.23
58373;BME280;44177;43.356;27.672;2023-02-28T07:59:41;99172.66;;;13.40;61.79
58373;BME280;44177;43.356;27.672;2023-02-28T08:02:06;99168.75;;;13.41;61.49
58373;BME280;44177;43.356;27.672;2023-02-28T08:04:32;99168.31;;;13.39;61.38
58373;BME280;44177;43.356;27.672;2023-02-28T08:06:58;99174.59;;;13.39;61.32
58373;BME280;44177;43.356;27.672;2023-02-28T08:09:24;99167.63;;;13.42;61.00
58373;BME280;44177;43.356;27.672;2023-02-28T08:11:49;99161.19;;;13.38;61.04
58373;BME280;44177;43.356;27.672;2023-02-28T08:14:15;99164.78;;;13.38;61.56
58373;BME280;44177;43.356;27.672;2023-02-28T08:16:41;99165.88;;;13.37;61.28
58373;BME280;44177;43.356;27.672;2023-02-28T08:19:08;99172.16;;;13.38;61.54
58373;BME280;44177;43.356;27.672;2023-02-28T08:21:34;99186.81;;;13.42;61.29
58373;BME280;44177;43.356;27.672;2023-02-28T08:23:59;99183.13;;;13.38;61.67
58373;BME280;44177;43.356;27.672;2023-02-28T08:26:25;99190.69;;;13.41;61.77
58373;BME280;44177;43.356;27.672;2023-02-28T08:28:50;99183.59;;;13.40;61.80
58373;BME280;44177;43.356;27.672;2023-02-28T08:31:16;99170.09;;;13.35;61.64
58373;BME280;44177;43.356;27.672;2023-02-28T08:33:42;99185.22;;;13.41;61.21
58373;BME280;44177;43.356;27.672;2023-02-28T08:36:10;99173.19;;;13.33;61.43
58373;BME280;44177;43.356;27.672;2023-02-28T08:38:36;99184.44;;;13.40;61.50
58373;BME280;44177;43.356;27.672;2023-02-28T08:41:04;99175.38;;;13.40;61.07
58373;BME280;44177;43.356;27.672;2023-02-28T08:43:33;99178.47;;;13.38;61.61
58373;BME280;44177;43.356;27.672;2023-02-28T08:45:58;99186.34;;;13.40;61.51
58373;BME280;44177;43.356;27.672;2023-02-28T08:48:26;99190.22;;;13.39;61.68
58373;BME280;44177;43.356;27.672;2023-02-28T08:51:15;99192.66;;;13.40;61.61
58373;BME280;44177;43.356;27.672;2023-02-28T08:53:47;99190.91;;;13.36;61.40
58373;BME280;44177;43.356;27.672;2023-02-28T08:56:17;99196.53;;;13.39;61.24
58373;BME280;44177;43.356;27.672;2023-02-28T08:58:43;99199.56;;;13.38;61.92
58373;BME280;44177;43.356;27.672;2023-02-28T09:01:14;99205.88;;;13.38;62.30
58373;BME280;44177;43.356;27.672;2023-02-28T09:03:41;99208.94;;;13.37;62.25
58373;BME280;44177;43.356;27.672;2023-02-28T09:06:08;99212.47;;;13.37;62.47
58373;BME280;44177;43.356;27.672;2023-02-28T09:08:35;99197.97;;;13.37;62.81
58373;BME280;44177;43.356;27.672;2023-02-28T09:11:00;99202.66;;;13.36;63.03
58373;BME280;44177;43.356;27.672;2023-02-28T09:13:27;99205.03;;;13.38;63.12
58373;BME280;44177;43.356;27.672;2023-02-28T09:15:53;99201.84;;;13.36;63.19
58373;BME280;44177;43.356;27.672;2023-02-28T09:18:20;99197.16;;;13.36;63.10
58373;BME280;44177;43.356;27.672;2023-02-28T09:20:45;99194.56;;;13.40;63.08
58373;BME280;44177;43.356;27.672;2023-02-28T09:23:12;99187.16;;;13.40;62.18
58373;BME280;44177;43.356;27.672;2023-02-28T09:25:40;99203.72;;;13.44;62.58
58373;BME280;44177;43.356;27.672;2023-02-28T09:28:10;99199.84;;;13.45;62.15
58373;BME280;44177;43.356;27.672;2023-02-28T09:30:36;99191.16;;;13.43;62.01
58373;BME280;44177;43.356;27.672;2023-02-28T09:33:02;99196.19;;;13.41;62.14
58373;BME280;44177;43.356;27.672;2023-02-28T09:35:27;99193.78;;;13.39;61.63
58373;BME280;44177;43.356;27.672;2023-02-28T09:37:53;99201.00;;;13.44;62.10
58373;BME280;44177;43.356;27.672;2023-02-28T09:40:20;99199.38;;;13.43;62.04
58373;BME280;44177;43.356;27.672;2023-02-28T09:42:49;99200.16;;;13.43;62.14
58373;BME280;44177;43.356;27.672;2023-02-28T09:45:33;99200.06;;;13.40;61.99
58373;BME280;44177;43.356;27.672;2023-02-28T09:48:07;99215.47;;;13.45;61.88
58373;BME280;44177;43.356;27.672;2023-02-28T09:50:40;99205.53;;;13.40;62.02
58373;BME280;44177;43.356;27.672;2023-02-28T09:53:34;99220.97;;;13.45;61.70
58373;BME280;44177;43.356;27.672;2023-02-28T09:56:13;99214.69;;;13.44;61.94
58373;BME280;44177;43.356;27.672;2023-02-28T09:58:48;99213.09;;;13.43;61.47
58373;BME280;44177;43.356;27.672;2023-02-28T10:01:22;99216.63;;;13.43;61.64
58373;BME280;44177;43.356;27.672;2023-02-28T10:03:59;99196.38;;;13.36;62.29
58373;BME280;44177;43.356;27.672;2023-02-28T10:06:30;99200.41;;;13.38;61.69
58373;BME280;44177;43.356;27.672;2023-02-28T10:09:04;99203.94;;;13.39;62.51
58373;BME280;44177;43.356;27.672;2023-02-28T10:11:35;99201.19;;;13.39;62.35
58373;BME280;44177;43.356;27.672;2023-02-28T10:14:10;99210.34;;;13.43;62.28
58373;BME280;44177;43.356;27.672;2023-02-28T10:17:05;99210.34;;;13.43;62.02
58373;BME280;44177;43.356;27.672;2023-02-28T10:25:47;99201.19;;;13.39;61.81
58373;BME280;44177;43.356;27.672;2023-02-28T10:28:16;99194.06;;;13.38;61.97
58373;BME280;44177;43.356;27.672;2023-02-28T10:30:51;99193.78;;;13.39;62.02
58373;BME280;44177;43.356;27.672;2023-02-28T10:33:22;99203.25;;;13.42;61.89
58373;BME280;44177;43.356;27.672;2023-02-28T10:35:48;99195.72;;;13.39;62.36
58373;BME280;44177;43.356;27.672;2023-02-28T10:38:31;99190.69;;;13.41;61.84
58373;BME280;44177;43.356;27.672;2023-02-28T10:41:28;99187.59;;;13.42;61.96
58373;BME280;44177;43.356;27.672;2023-02-28T10:44:13;99182.13;;;13.42;61.82
58373;BME280;44177;43.356;27.672;2023-02-28T10:46:40;99169.91;;;13.40;61.44
58373;BME280;44177;43.356;27.672;2023-02-28T10:49:13;99173.91;;;13.42;61.75
58373;BME280;44177;43.356;27.672;2023-02-28T10:51:40;99170.03;;;13.43;61.56
58373;BME280;44177;43.356;27.672;2023-02-28T10:54:15;99158.94;;;13.40;61.87
58373;BME280;44177;43.356;27.672;2023-02-28T10:56:41;99159.06;;;13.43;61.58
58373;BME280;44177;43.356;27.672;2023-02-28T10:59:30;99160.53;;;13.41;61.45
58373;BME280;44177;43.356;27.672;2023-02-28T11:01:56;99142.34;;;13.36;61.78
58373;BME280;44177;43.356;27.672;2023-02-28T11:07:22;99136.22;;;13.39;61.32
58373;BME280;44177;43.356;27.672;2023-02-28T11:09:50;99139.75;;;13.40;61.42
58373;BME280;44177;43.356;27.672;2023-02-28T11:12:36;99143.16;;;13.37;61.34
58373;BME280;44177;43.356;27.672;2023-02-28T11:15:06;99142.50;;;13.40;61.63
58373;BME280;44177;43.356;27.672;2023-02-28T11:17:43;99150.22;;;13.38;61.44
58373;BME280;44177;43.356;27.672;2023-02-28T11:20:18;99145.59;;;13.38;61.46
58373;BME280;44177;43.356;27.672;2023-02-28T11:22:46;99147.97;;;13.40;61.63
58373;BME280;44177;43.356;27.672;2023-02-28T11:25:30;99145.91;;;13.37;61.30
58373;BME280;44177;43.356;27.672;2023-02-28T11:28:00;99141.72;;;13.39;61.38
58373;BME280;44177;43.356;27.672;2023-02-28T11:30:40;99142.34;;;13.36;61.16
58373;BME280;44177;43.356;27.672;2023-02-28T11:33:22;99129.00;;;13.35;61.43
58373;BME280;44177;43.356;27.672;2023-02-28T11:35:49;99128.53;;;13.33;61.65
58373;BME280;44177;43.356;27.672;2023-02-28T11:38:15;99134.47;;;13.35;61.55
58373;BME280;44177;43.356;27.672;2023-02-28T11:40:54;99129.78;;;13.35;61.77
58373;BME280;44177;43.356;27.672;2023-02-28T11:47:47;99124.31;;;13.35;61.57
58373;BME280;44177;43.356;27.672;2023-02-28T11:52:45;99122.72;;;13.34;61.29
58373;BME280;44177;43.356;27.672;2023-02-28T12:06:25;99109.81;;;13.35;61.27
58373;BME280;44177;43.356;27.672;2023-02-28T12:21:15;99114.84;;;13.33;61.06
58373;BME280;44177;43.356;27.672;2023-02-28T12:28:44;99126.63;;;13.33;61.02
58373;BME280;44177;43.356;27.672;2023-02-28T12:31:21;99134.84;;;13.33;61.57
58373;BME280;44177;43.356;27.672;2023-02-28T12:33:55;99129.69;;;13.32;61.70
58373;BME280;44177;43.356;27.672;2023-02-28T12:36:21;99131.63;;;13.31;61.41
58373;BME280;44177;43.356;27.672;2023-02-28T12:38:54;99122.47;;;13.27;61.32
58373;BME280;44177;43.356;27.672;2023-02-28T12:41:54;99134.38;;;13.31;61.81
58373;BME280;44177;43.356;27.672;2023-02-28T12:44:58;99125.69;;;13.29;61.55
58373;BME280;44177;43.356;27.672;2023-02-28T12:47:24;99108.00;;;13.26;61.19
58373;BME280;44177;43.356;27.672;2023-02-28T12:49:56;99113.94;;;13.29;61.50
58373;BME280;44177;43.356;27.672;2023-02-28T12:55:21;99119.53;;;13.32;61.31
58373;BME280;44177;43.356;27.672;2023-02-28T12:58:12;99112.44;;;13.31;61.26
58373;BME280;44177;43.356;27.672;2023-02-28T13:06:22;99104.59;;;13.30;61.41
58373;BME280;44177;43.356;27.672;2023-02-28T13:09:02;99114.38;;;13.31;61.09
58373;BME280;44177;43.356;27.672;2023-02-28T13:11:52;99095.44;;;13.25;61.18
58373;BME280;44177;43.356;27.672;2023-02-28T13:19:27;99104.59;;;13.30;61.48
58373;BME280;44177;43.356;27.672;2023-02-28T13:21:55;99112.81;;;13.30;61.02
58373;BME280;44177;43.356;27.672;2023-02-28T13:24:41;99107.31;;;13.30;61.08
58373;BME280;44177;43.356;27.672;2023-02-28T13:34:28;99116.22;;;13.26;61.14
58373;BME280;44177;43.356;27.672;2023-02-28T13:39:48;99104.44;;;13.26;60.82
58373;BME280;44177;43.356;27.672;2023-02-28T13:50:37;99105.25;;;13.26;61.45
58373;BME280;44177;43.356;27.672;2023-02-28T14:01:21;99091.09;;;13.24;61.36
58373;BME280;44177;43.356;27.672;2023-02-28T14:06:48;99084.25;;;13.18;61.21
58373;BME280;44177;43.356;27.672;2023-02-28T14:09:33;99096.44;;;13.21;61.46
58373;BME280;44177;43.356;27.672;2023-02-28T14:15:25;99102.75;;;13.21;61.00
58373;BME280;44177;43.356;27.672;2023-02-28T14:17:52;99094.06;;;13.19;60.96
58373;BME280;44177;43.356;27.672;2023-02-28T14:20:20;99093.59;;;13.17;60.93
58373;BME280;44177;43.356;27.672;2023-02-28T14:22:58;99105.03;;;13.19;60.95
58373;BME280;44177;43.356;27.672;2023-02-28T14:31:10;99096.00;;;13.19;60.88
58373;BME280;44177;43.356;27.672;2023-02-28T14:38:46;99106.84;;;13.15;61.03
58373;BME280;44177;43.356;27.672;2023-02-28T14:41:19;99112.78;;;13.17;60.77
58373;BME280;44177;43.356;27.672;2023-02-28T14:43:51;99112.31;;;13.15;60.90
58373;BME280;44177;43.356;27.672;2023-02-28T14:46:17;99104.78;;;13.12;61.04
58373;BME280;44177;43.356;27.672;2023-02-28T14:48:48;99113.44;;;13.14;61.22
58373;BME280;44177;43.356;27.672;2023-02-28T14:51:19;99125.34;;;13.18;61.00
58373;BME280;44177;43.356;27.672;2023-02-28T14:53:49;99114.72;;;13.17;60.90
58373;BME280;44177;43.356;27.672;2023-02-28T14:56:21;99111.16;;;13.16;60.92
58373;BME280;44177;43.356;27.672;2023-02-28T14:58:55;99114.38;;;13.18;61.48
58373;BME280;44177;43.356;27.672;2023-02-28T15:01:23;99107.28;;;13.17;61.27
58373;BME280;44177;43.356;27.672;2023-02-28T15:04:03;99108.13;;;13.18;61.26
58373;BME280;44177;43.356;27.672;2023-02-28T15:06:30;99096.56;;;13.12;61.05
58373;BME280;44177;43.356;27.672;2023-02-28T15:09:22;99100.22;;;13.16;60.87
58373;BME280;44177;43.356;27.672;2023-02-28T15:11:49;99115.06;;;13.15;61.47
58373;BME280;44177;43.356;27.672;2023-02-28T15:14:19;99088.00;;;13.01;60.99
58373;BME280;44177;43.356;27.672;2023-02-28T15:16:47;99106.41;;;13.13;61.10
58373;BME280;44177;43.356;27.672;2023-02-28T15:19:23;99107.19;;;13.14;61.16